Time;durP1;ratioP1;P1;durP2;ratioP2;P2;SDS_P1;SDS_P2;PMS_P1;PMS_P2;Temp;Humidity;BMP_temperature;BMP_pressure;BME280_temperature;BME280_humidity;BME280_pressure;Samples;Min_cycle;Max_cycle;Signal;HPM_P1;HPM_P2
2022/06/18 00:00:12;;;;;;;3.87;2.20;;;23.20;99.90;;;;;;5051809;28;20452;-80
2022/06/18 00:02:39;;;;;;;5.30;2.13;;;23.20;99.90;;;;;;5055678;28;20544;-80
2022/06/18 00:05:06;;;;;;;3.30;2.13;;;23.20;99.90;;;;;;5055488;28;20438;-80
2022/06/18 00:07:37;;;;;;;3.30;1.90;;;23.20;99.90;;;;;;5055068;28;20414;-80
2022/06/18 00:10:05;;;;;;;3.67;2.00;;;23.10;99.90;;;;;;5055453;28;20433;-80
2022/06/18 00:15:19;;;;;;;3.20;2.00;;;23.10;99.90;;;;;;5055489;28;20464;-80
2022/06/18 00:17:46;;;;;;;3.67;2.20;;;23.10;99.90;;;;;;5053747;28;20454;-80
2022/06/18 00:20:13;;;;;;;2.93;2.10;;;23.10;99.90;;;;;;5055258;28;20410;-81
2022/06/18 00:22:41;;;;;;;3.83;2.17;;;23.10;99.90;;;;;;5055308;28;20433;-80
2022/06/18 00:25:21;;;;;;;3.90;2.20;;;23.10;99.90;;;;;;5055071;28;20433;-80
2022/06/18 00:27:47;;;;;;;3.80;2.03;;;23.10;99.90;;;;;;5052211;28;20418;-80
2022/06/18 00:30:15;;;;;;;3.50;2.47;;;23.10;99.90;;;;;;5055111;28;20451;-80
2022/06/18 00:32:41;;;;;;;3.00;1.90;;;23.10;99.90;;;;;;5054947;28;21027;-80
2022/06/18 00:35:07;;;;;;;3.37;2.10;;;23.00;99.90;;;;;;5054958;28;20457;-80
2022/06/18 00:37:33;;;;;;;3.73;2.40;;;23.10;99.90;;;;;;5053173;28;20426;-81
2022/06/18 00:39:58;;;;;;;3.23;2.27;;;23.00;99.90;;;;;;5053598;28;20421;-80
2022/06/18 00:42:30;;;;;;;3.00;1.80;;;23.00;99.90;;;;;;5055329;28;20254;-80
2022/06/18 00:44:59;;;;;;;3.03;2.27;;;23.00;99.90;;;;;;5054703;28;20608;-80
2022/06/18 00:47:27;;;;;;;3.60;2.13;;;23.00;99.90;;;;;;5054342;28;20418;-80
2022/06/18 00:50:17;;;;;;;2.70;1.90;;;23.00;99.90;;;;;;5054613;28;20422;-80
2022/06/18 00:53:05;;;;;;;3.37;2.10;;;23.00;99.90;;;;;;5054711;28;20546;-80
2022/06/18 00:55:41;;;;;;;5.13;2.30;;;22.90;99.90;;;;;;5054499;28;20413;-80
2022/06/18 00:58:43;;;;;;;4.00;2.23;;;22.90;99.90;;;;;;5054704;28;20808;-79
2022/06/18 01:01:21;;;;;;;3.50;2.30;;;22.90;99.90;;;;;;5022418;28;20434;-81
2022/06/18 01:03:48;;;;;;;5.30;2.43;;;22.80;99.90;;;;;;5054509;28;20487;-80
2022/06/18 01:06:20;;;;;;;4.50;2.30;;;22.70;99.90;;;;;;5053957;28;20422;-81
2022/06/18 01:08:50;;;;;;;4.97;2.10;;;22.70;99.90;;;;;;5069801;28;20430;-80
2022/06/18 01:11:21;;;;;;;3.17;2.37;;;22.70;99.90;;;;;;5054258;28;20415;-80
2022/06/18 01:13:48;;;;;;;3.70;2.30;;;22.70;99.90;;;;;;5053446;28;20454;-80
2022/06/18 01:16:13;;;;;;;2.93;2.13;;;22.70;99.90;;;;;;5053779;28;20913;-80
2022/06/18 01:18:39;;;;;;;3.47;2.17;;;22.60;99.90;;;;;;5054237;28;20421;-80
2022/06/18 01:21:34;;;;;;;4.67;2.40;;;22.60;99.90;;;;;;5054151;28;20204;-81
2022/06/18 01:24:30;;;;;;;4.00;2.73;;;22.50;99.90;;;;;;5054146;28;20445;-81
2022/06/18 01:26:56;;;;;;;3.10;2.10;;;22.50;99.90;;;;;;5053535;28;20418;-80
2022/06/18 01:29:22;;;;;;;3.90;2.67;;;22.50;99.90;;;;;;5054085;28;20906;-80
2022/06/18 01:31:50;;;;;;;3.73;2.17;;;22.50;99.90;;;;;;5053906;28;20594;-79
2022/06/18 01:34:16;;;;;;;4.00;2.10;;;22.50;99.90;;;;;;5053826;28;20438;-80
2022/06/18 01:36:42;;;;;;;3.00;1.90;;;22.40;99.90;;;;;;5053367;28;20501;-81
2022/06/18 01:39:13;;;;;;;4.37;2.97;;;22.40;99.90;;;;;;5069340;28;20457;-80
2022/06/18 01:41:49;;;;;;;4.43;2.57;;;22.50;99.90;;;;;;5053735;28;20853;-80
2022/06/18 01:44:41;;;;;;;6.10;2.23;;;22.40;99.90;;;;;;5053721;28;20438;-80
2022/06/18 01:47:12;;;;;;;3.73;2.20;;;22.40;99.90;;;;;;5053789;28;20422;-81
2022/06/18 01:50:03;;;;;;;2.83;1.70;;;22.40;99.90;;;;;;5057332;28;20426;-81
2022/06/18 01:52:43;;;;;;;5.70;2.53;;;22.40;99.90;;;;;;5057423;28;20541;-81
2022/06/18 01:55:18;;;;;;;3.57;2.23;;;22.40;99.90;;;;;;5057896;28;20438;-80
2022/06/18 01:57:49;;;;;;;6.10;2.63;;;22.40;99.90;;;;;;5057000;28;20402;-82
2022/06/18 02:00:21;;;;;;;3.33;1.80;;;22.40;99.90;;;;;;5057545;28;20518;-81
2022/06/18 02:02:47;;;;;;;3.87;2.20;;;22.40;99.90;;;;;;5057346;28;20418;-81
2022/06/18 02:05:15;;;;;;;4.00;2.60;;;22.40;99.90;;;;;;5057382;28;20515;-82
2022/06/18 02:07:43;;;;;;;3.77;2.37;;;22.40;99.90;;;;;;5056740;28;20180;-82
2022/06/18 02:10:13;;;;;;;5.03;2.90;;;22.40;99.90;;;;;;5057098;28;20418;-82
2022/06/18 02:12:40;;;;;;;4.17;2.70;;;22.40;99.90;;;;;;5055291;28;20464;-81
2022/06/18 02:15:10;;;;;;;4.00;2.33;;;22.30;99.90;;;;;;5052934;28;20454;-79
2022/06/18 02:17:38;;;;;;;6.40;2.70;;;22.30;99.90;;;;;;5067899;28;20426;-80
2022/06/18 02:20:26;;;;;;;3.83;2.33;;;22.30;99.90;;;;;;5052859;28;20509;-79
2022/06/18 02:22:56;;;;;;;3.60;2.27;;;22.30;99.90;;;;;;5052883;28;20859;-80
2022/06/18 02:25:25;;;;;;;4.63;2.33;;;22.20;99.90;;;;;;5068038;28;20457;-80
2022/06/18 02:27:57;;;;;;;3.20;2.27;;;22.20;99.90;;;;;;5052435;28;20414;-81
2022/06/18 02:30:27;;;;;;;4.40;3.00;;;22.20;99.90;;;;;;5052745;28;20493;-80
2022/06/18 02:33:06;;;;;;;3.00;1.90;;;22.20;99.90;;;;;;5053212;28;20470;-82
2022/06/18 02:35:32;;;;;;;3.10;2.07;;;22.20;99.90;;;;;;5055789;28;20406;-81
2022/06/18 02:37:59;;;;;;;4.20;2.57;;;22.20;99.90;;;;;;5055481;28;20453;-81
2022/06/18 02:40:28;;;;;;;4.13;2.27;;;22.20;99.90;;;;;;5055225;28;20863;-79
2022/06/18 02:42:58;;;;;;;4.13;2.23;;;22.10;99.90;;;;;;5054747;28;20453;-77
2022/06/18 02:45:26;;;;;;;3.80;3.00;;;22.10;99.90;;;;;;5052528;28;20469;-81
2022/06/18 02:47:55;;;;;;;4.47;2.33;;;22.10;99.90;;;;;;5052024;28;20426;-75
2022/06/18 02:50:22;;;;;;;3.90;2.70;;;22.10;99.90;;;;;;5052348;28;20415;-77
2022/06/18 02:52:52;;;;;;;3.60;2.50;;;22.10;99.90;;;;;;5052165;28;20464;-76
2022/06/18 02:55:28;;;;;;;4.20;3.00;;;22.10;99.90;;;;;;5052207;28;20479;-76
2022/06/18 02:58:04;;;;;;;6.00;2.47;;;22.10;99.90;;;;;;5051968;28;20418;-75
2022/06/18 03:00:31;;;;;;;6.10;2.57;;;22.10;99.90;;;;;;5052265;28;20409;-75
2022/06/18 03:02:56;;;;;;;3.93;2.27;;;22.20;99.90;;;;;;5051131;28;20800;-78
2022/06/18 03:05:25;;;;;;;4.20;2.70;;;22.20;99.90;;;;;;5052069;28;20438;-77
2022/06/18 03:07:51;;;;;;;3.77;2.43;;;22.10;99.90;;;;;;5051992;28;20188;-80
2022/06/18 03:13:02;;;;;;;6.00;2.77;;;22.20;99.90;;;;;;5052246;28;20206;-79
2022/06/18 03:15:30;;;;;;;3.33;2.20;;;22.10;99.90;;;;;;5067385;28;20804;-83
2022/06/18 03:17:57;;;;;;;3.60;2.67;;;22.20;99.90;;;;;;5051970;28;20905;-79
2022/06/18 03:20:30;;;;;;;5.80;2.17;;;22.10;99.90;;;;;;5052018;28;20422;-79
2022/06/18 03:22:57;;;;;;;6.70;2.70;;;22.10;99.90;;;;;;5052159;28;20414;-79
2022/06/18 03:25:22;;;;;;;7.77;2.20;;;22.10;99.90;;;;;;5051884;28;20440;-77
2022/06/18 03:27:48;;;;;;;3.60;2.63;;;22.10;99.90;;;;;;5051685;28;20414;-77
2022/06/18 03:30:14;;;;;;;3.67;2.30;;;22.20;99.90;;;;;;5052026;28;20176;-79
2022/06/18 03:32:39;;;;;;;6.43;2.30;;;22.10;99.90;;;;;;5051989;28;20214;-77
2022/06/18 03:35:06;;;;;;;4.67;2.40;;;22.10;99.90;;;;;;5051641;28;20204;-77
2022/06/18 03:37:32;;;;;;;3.73;2.50;;;22.10;99.90;;;;;;5051556;28;20523;-79
2022/06/18 03:39:57;;;;;;;3.60;2.63;;;22.00;99.90;;;;;;5051937;28;20409;-77
2022/06/18 03:42:23;;;;;;;4.23;2.50;;;22.00;99.90;;;;;;5051983;28;20171;-77
2022/06/18 03:44:48;;;;;;;3.73;2.60;;;22.00;99.90;;;;;;5051595;28;20204;-76
2022/06/18 03:47:14;;;;;;;5.23;2.70;;;22.00;99.90;;;;;;5051330;28;20553;-77
2022/06/18 03:49:40;;;;;;;5.20;3.00;;;22.00;99.90;;;;;;5051615;28;20180;-75
2022/06/18 03:52:08;;;;;;;4.27;2.40;;;22.00;99.90;;;;;;5051446;28;20198;-75
2022/06/18 03:54:34;;;;;;;4.10;2.63;;;22.00;99.90;;;;;;5051801;28;20195;-78
2022/06/18 03:57:00;;;;;;;4.30;2.33;;;22.00;99.90;;;;;;5050584;28;20422;-77
2022/06/18 03:59:25;;;;;;;2.80;2.00;;;21.90;99.90;;;;;;5051889;28;20179;-77
2022/06/18 04:01:51;;;;;;;3.80;2.70;;;21.90;99.90;;;;;;5052051;28;20417;-78
2022/06/18 04:04:16;;;;;;;4.93;3.00;;;21.90;99.90;;;;;;5051654;28;20271;-78
2022/06/18 04:06:43;;;;;;;6.83;2.30;;;21.90;99.90;;;;;;5050021;28;20183;-77
2022/06/18 04:09:10;;;;;;;5.13;2.80;;;21.90;99.90;;;;;;5067203;28;20186;-79
2022/06/18 04:11:36;;;;;;;3.50;2.30;;;21.90;99.90;;;;;;5051564;28;20461;-77
2022/06/18 04:14:03;;;;;;;3.00;2.30;;;22.00;99.90;;;;;;5067071;28;20546;-77
2022/06/18 04:16:29;;;;;;;3.70;2.40;;;22.00;99.90;;;;;;5051362;28;20406;-77
2022/06/18 04:18:55;;;;;;;4.20;2.77;;;22.00;99.90;;;;;;5051609;28;20485;-80
2022/06/18 04:21:20;;;;;;;4.50;2.20;;;22.10;99.90;;;;;;5051622;28;20781;-77
2022/06/18 04:23:46;;;;;;;4.27;2.53;;;22.10;99.90;;;;;;5051561;28;20240;-77
2022/06/18 04:26:12;;;;;;;5.50;2.50;;;22.10;99.90;;;;;;5051452;28;20683;-78
2022/06/18 04:28:38;;;;;;;3.60;2.60;;;22.10;99.90;;;;;;5051491;28;20262;-77
2022/06/18 04:31:05;;;;;;;6.03;2.60;;;22.20;99.90;;;;;;5051535;28;20417;-77
2022/06/18 04:33:31;;;;;;;6.60;2.80;;;22.20;99.90;;;;;;5051376;28;20515;-78
2022/06/18 04:35:58;;;;;;;4.77;2.90;;;22.20;99.90;;;;;;5051279;28;20914;-77
2022/06/18 04:38:25;;;;;;;4.07;2.73;;;22.30;99.90;;;;;;5051436;28;20767;-79
2022/06/18 04:40:50;;;;;;;3.70;2.17;;;22.30;99.90;;;;;;5051847;28;20418;-78
2022/06/18 04:43:16;;;;;;;4.63;3.20;;;22.30;99.90;;;;;;5051601;28;20422;-78
2022/06/18 04:45:42;;;;;;;3.63;2.33;;;22.30;99.90;;;;;;5051326;28;20582;-78
2022/06/18 04:48:08;;;;;;;5.00;2.60;;;22.40;99.90;;;;;;5052892;28;20263;-80
2022/06/18 04:50:37;;;;;;;4.27;2.53;;;22.40;99.90;;;;;;5055026;28;20553;-80
2022/06/18 04:53:04;;;;;;;4.23;2.60;;;22.50;99.90;;;;;;5054821;28;20458;-76
2022/06/18 04:55:29;;;;;;;4.97;2.53;;;22.50;99.90;;;;;;5054407;28;20406;-76
2022/06/18 04:57:55;;;;;;;3.37;2.70;;;22.60;99.90;;;;;;5054373;28;20410;-77
2022/06/18 05:00:21;;;;;;;3.43;2.23;;;22.60;99.90;;;;;;5056545;28;20172;-77
2022/06/18 05:02:46;;;;;;;5.93;2.30;;;22.60;99.90;;;;;;5056049;28;20175;-78
2022/06/18 05:05:21;;;;;;;4.00;2.43;;;22.70;99.90;;;;;;5055883;28;20287;-77
2022/06/18 05:07:46;;;;;;;3.77;2.67;;;22.80;99.90;;;;;;5055707;28;20650;-79
2022/06/18 05:10:13;;;;;;;6.10;3.50;;;22.80;99.90;;;;;;5056038;28;20451;-78
2022/06/18 05:12:39;;;;;;;6.40;2.80;;;22.80;99.90;;;;;;5055810;28;20203;-79
2022/06/18 05:15:06;;;;;;;4.27;3.03;;;22.90;99.90;;;;;;5094667;22;21012;-81
2022/06/18 05:17:33;;;;;;;7.47;2.77;;;23.00;99.90;;;;;;5060083;28;20562;-81
2022/06/18 05:19:59;;;;;;;3.13;2.50;;;23.10;99.90;;;;;;5058312;28;20410;-81
2022/06/18 05:22:25;;;;;;;3.40;2.80;;;23.20;99.90;;;;;;5059373;28;20403;-80
2022/06/18 05:24:51;;;;;;;4.17;3.00;;;23.30;99.90;;;;;;5058474;28;20345;-80
2022/06/18 05:27:30;;;;;;;3.80;2.53;;;23.40;99.90;;;;;;5059147;28;20497;-81
2022/06/18 05:29:56;;;;;;;4.27;2.73;;;23.40;99.90;;;;;;5060953;28;20183;-81
2022/06/18 05:32:22;;;;;;;4.60;2.50;;;23.50;99.90;;;;;;5058071;28;20469;-80
2022/06/18 05:34:47;;;;;;;4.70;2.97;;;23.60;99.90;;;;;;5059609;28;20431;-81
2022/06/18 05:37:15;;;;;;;5.43;2.60;;;23.60;99.90;;;;;;5056852;28;20183;-80
2022/06/18 05:39:41;;;;;;;5.23;2.97;;;23.70;99.90;;;;;;5059190;28;20178;-80
2022/06/18 05:42:07;;;;;;;4.70;2.53;;;23.80;99.90;;;;;;5060046;28;20410;-80
2022/06/18 05:44:33;;;;;;;5.40;3.00;;;23.90;99.90;;;;;;5059413;28;20460;-81
2022/06/18 05:46:59;;;;;;;3.53;2.90;;;24.00;99.90;;;;;;5057841;28;20681;-81
2022/06/18 05:49:24;;;;;;;5.03;2.87;;;24.00;99.90;;;;;;5057942;28;20179;-80
2022/06/18 05:51:50;;;;;;;4.20;2.30;;;24.10;99.90;;;;;;5060027;28;20200;-81
2022/06/18 05:54:15;;;;;;;3.47;2.70;;;24.20;99.90;;;;;;5059184;28;20247;-81
2022/06/18 05:56:41;;;;;;;4.33;2.93;;;24.30;99.90;;;;;;5058956;28;20172;-80
2022/06/18 05:59:11;;;;;;;4.13;3.03;;;24.30;99.90;;;;;;5058184;28;20543;-80
2022/06/18 06:01:37;;;;;;;4.90;2.97;;;24.40;99.90;;;;;;5057743;28;20172;-81
2022/06/18 06:04:03;;;;;;;4.30;3.30;;;24.50;99.90;;;;;;5057236;28;20432;-81
2022/06/18 06:06:29;;;;;;;5.50;3.33;;;24.60;99.90;;;;;;5057009;28;20168;-80
2022/06/18 06:08:58;;;;;;;6.57;3.00;;;24.70;99.90;;;;;;5056916;28;20473;-81
2022/06/18 06:11:29;;;;;;;4.63;2.90;;;24.70;99.90;;;;;;5057365;28;20172;-80
2022/06/18 06:13:56;;;;;;;4.03;3.07;;;24.80;99.90;;;;;;5057337;28;20537;-80
2022/06/18 06:16:22;;;;;;;4.40;2.77;;;24.90;99.90;;;;;;5057864;28;20438;-80
2022/06/18 06:18:48;;;;;;;4.67;2.97;;;25.10;99.90;;;;;;5058044;28;20414;-81
2022/06/18 06:21:16;;;;;;;4.73;2.90;;;25.20;99.90;;;;;;5057595;28;20411;-81
2022/06/18 06:23:42;;;;;;;4.47;3.13;;;25.30;99.90;;;;;;5054882;28;20909;-81
2022/06/18 06:26:21;;;;;;;4.20;2.73;;;25.40;99.90;;;;;;5056796;28;20414;-81
2022/06/18 06:28:47;;;;;;;4.57;2.70;;;25.40;99.90;;;;;;5054972;28;20202;-80
2022/06/18 06:31:13;;;;;;;6.10;3.03;;;25.50;99.90;;;;;;5056283;28;20884;-80
2022/06/18 06:33:39;;;;;;;4.93;2.83;;;25.60;99.90;;;;;;5054337;28;20462;-80
2022/06/18 06:36:05;;;;;;;6.30;2.97;;;25.70;99.90;;;;;;5053693;28;20255;-80
2022/06/18 06:38:32;;;;;;;5.53;2.83;;;25.80;99.90;;;;;;5052731;28;20424;-80
2022/06/18 06:40:59;;;;;;;4.90;4.40;;;25.90;99.90;;;;;;5054293;28;20406;-80
2022/06/18 06:43:25;;;;;;;4.67;3.17;;;26.00;99.90;;;;;;5053846;28;20421;-80
2022/06/18 06:45:51;;;;;;;10.70;4.20;;;26.10;99.90;;;;;;5054034;28;20501;-80
2022/06/18 06:48:16;;;;;;;4.80;3.10;;;26.20;99.90;;;;;;5052507;28;20873;-80
2022/06/18 06:50:44;;;;;;;3.77;2.87;;;26.30;99.90;;;;;;5052484;28;20183;-80
2022/06/18 06:53:11;;;;;;;4.50;3.10;;;26.30;99.90;;;;;;5053879;28;20203;-80
2022/06/18 06:58:22;;;;;;;4.47;2.73;;;26.50;99.90;;;;;;5052868;28;20401;-80
2022/06/18 07:00:54;;;;;;;5.43;3.73;;;26.60;99.90;;;;;;5052511;28;20411;-80
2022/06/18 07:03:27;;;;;;;5.10;2.60;;;26.70;99.90;;;;;;5050919;28;20418;-79
2022/06/18 07:05:54;;;;;;;4.77;2.90;;;26.80;99.90;;;;;;5052083;28;20452;-80
2022/06/18 07:08:19;;;;;;;5.90;2.97;;;26.80;99.90;;;;;;5053189;28;20829;-80
2022/06/18 07:10:48;;;;;;;4.33;3.10;;;27.00;99.90;;;;;;5052094;28;20410;-80
2022/06/18 07:13:14;;;;;;;3.90;2.80;;;27.00;99.90;;;;;;5052121;28;20200;-80
2022/06/18 07:15:40;;;;;;;4.33;2.80;;;27.20;99.90;;;;;;5052146;28;20488;-80
2022/06/18 07:18:16;;;;;;;4.20;2.83;;;27.20;99.90;;;;;;5050985;28;20184;-80
2022/06/18 07:20:42;;;;;;;5.03;2.70;;;27.30;99.90;;;;;;5052103;28;20174;-80
2022/06/18 07:23:09;;;;;;;3.83;2.97;;;27.40;99.90;;;;;;5051986;28;20475;-80
2022/06/18 07:25:34;;;;;;;5.37;3.70;;;27.40;99.90;;;;;;5052084;28;20438;-80
2022/06/18 07:28:00;;;;;;;4.50;3.60;;;27.50;99.90;;;;;;5052244;28;20448;-79
2022/06/18 07:30:26;;;;;;;4.80;3.23;;;27.60;99.90;;;;;;5051477;28;20182;-79
2022/06/18 07:32:52;;;;;;;4.30;3.30;;;27.70;99.90;;;;;;5051961;28;20685;-80
2022/06/18 07:35:30;;;;;;;5.33;3.20;;;27.90;99.90;;;;;;5052022;28;20426;-80
2022/06/18 07:37:58;;;;;;;3.33;2.73;;;28.00;99.90;;;;;;5052263;28;20152;-80
2022/06/18 07:40:25;;;;;;;5.53;3.10;;;28.10;99.90;;;;;;5052392;28;20490;-80
2022/06/18 07:42:53;;;;;;;5.07;3.20;;;28.10;99.90;;;;;;5050658;28;20429;-81
2022/06/18 07:45:24;;;;;;;4.83;3.00;;;28.30;99.90;;;;;;5051984;28;20438;-80
2022/06/18 07:47:52;;;;;;;4.53;3.17;;;28.40;99.90;;;;;;5050404;28;20913;-80
2022/06/18 07:50:19;;;;;;;7.00;3.73;;;28.60;99.90;;;;;;5051976;28;20425;-80
2022/06/18 07:52:45;;;;;;;6.30;3.10;;;28.70;99.90;;;;;;5051675;28;20466;-80
2022/06/18 07:55:20;;;;;;;4.00;3.23;;;28.90;99.90;;;;;;5050431;28;20427;-80
2022/06/18 07:57:46;;;;;;;4.10;2.87;;;29.00;99.90;;;;;;5050466;28;20552;-79
2022/06/18 08:00:16;;;;;;;4.70;3.20;;;29.10;99.90;;;;;;5051734;28;20493;-79
2022/06/18 08:02:42;;;;;;;5.43;3.30;;;29.20;99.90;;;;;;5051727;28;20414;-80
2022/06/18 08:05:09;;;;;;;4.00;3.00;;;29.40;99.90;;;;;;5051421;28;20434;-80
2022/06/18 08:07:35;;;;;;;3.87;2.87;;;29.50;99.90;;;;;;5051443;28;20476;-79
2022/06/18 08:10:01;;;;;;;4.90;2.80;;;29.60;99.90;;;;;;5051742;28;20414;-79
2022/06/18 08:12:27;;;;;;;5.27;2.80;;;29.80;99.90;;;;;;5051769;28;20214;-78
2022/06/18 08:14:52;;;;;;;4.77;3.17;;;30.10;99.90;;;;;;5051656;28;20976;-80
2022/06/18 08:17:18;;;;;;;7.10;2.90;;;31.00;99.90;;;;;;5050431;28;20563;-80
2022/06/18 08:19:43;;;;;;;6.00;2.87;;;31.60;97.80;;;;;;5051529;28;20255;-80
2022/06/18 08:22:10;;;;;;;5.37;3.47;;;32.40;98.80;;;;;;5052184;28;20176;-80
2022/06/18 08:24:35;;;;;;;6.67;3.57;;;32.90;93.00;;;;;;5055611;28;20191;-81
2022/06/18 08:27:01;;;;;;;6.23;3.30;;;33.40;93.80;;;;;;5055216;28;20955;-80
2022/06/18 08:29:27;;;;;;;4.60;2.90;;;33.90;90.40;;;;;;5056503;28;20252;-80
2022/06/18 08:31:53;;;;;;;4.00;3.27;;;34.20;84.70;;;;;;5055405;28;20200;-80
2022/06/18 08:34:19;;;;;;;4.23;2.77;;;34.70;82.40;;;;;;5054799;28;20422;-80
2022/06/18 08:36:45;;;;;;;5.47;3.00;;;35.00;78.90;;;;;;5054834;28;20179;-81
2022/06/18 08:39:11;;;;;;;5.00;3.10;;;35.50;74.70;;;;;;5055786;28;20611;-80
2022/06/18 08:41:52;;;;;;;4.50;3.27;;;36.00;71.50;;;;;;5055441;28;20460;-80
2022/06/18 08:44:30;;;;;;;4.80;3.60;;;36.50;70.40;;;;;;5053637;28;20517;-81
2022/06/18 08:47:08;;;;;;;5.50;3.20;;;36.90;65.00;;;;;;5054607;28;20480;-81
2022/06/18 08:49:58;;;;;;;6.10;2.97;;;37.20;64.00;;;;;;5054913;28;20792;-80
2022/06/18 08:52:33;;;;;;;4.57;3.57;;;37.60;64.50;;;;;;5055123;28;20802;-80
2022/06/18 08:55:30;;;;;;;4.93;3.10;;;38.20;59.00;;;;;;5054765;28;20505;-81
2022/06/18 08:58:01;;;;;;;4.20;2.67;;;38.80;57.10;;;;;;5054426;28;20403;-80
2022/06/18 09:00:56;;;;;;;4.80;2.97;;;39.10;55.80;;;;;;5054532;28;20407;-81
2022/06/18 09:03:44;;;;;;;5.97;3.00;;;39.70;54.30;;;;;;5040701;28;20422;-81
2022/06/18 09:06:40;;;;;;;6.67;3.00;;;40.20;52.40;;;;;;5054791;28;20427;-81
2022/06/18 09:09:14;;;;;;;6.40;3.07;;;40.60;52.90;;;;;;5026636;28;20425;-81
2022/06/18 09:12:23;;;;;;;5.40;3.27;;;40.70;50.20;;;;;;5054177;28;20413;-81
2022/06/18 09:15:16;;;;;;;6.23;3.07;;;40.60;49.60;;;;;;5044639;28;20504;-82
2022/06/18 09:17:50;;;;;;;4.73;3.10;;;40.80;49.70;;;;;;5054415;28;20404;-82
2022/06/18 09:20:36;;;;;;;5.90;3.90;;;40.90;47.70;;;;;;5054773;28;20833;-81
2022/06/18 09:23:08;;;;;;;5.67;3.10;;;41.40;48.40;;;;;;5054887;28;20414;-81
2022/06/18 09:25:40;;;;;;;5.70;2.43;;;41.30;46.50;;;;;;5055065;28;20433;-81
2022/06/18 09:28:10;;;;;;;6.20;3.43;;;41.50;45.40;;;;;;5053667;28;20420;-81
2022/06/18 09:30:48;;;;;;;6.03;2.77;;;41.60;44.60;;;;;;5054600;28;20421;-82
2022/06/18 09:33:26;;;;;;;6.43;3.07;;;42.20;44.70;;;;;;5053797;28;20510;-82
2022/06/18 09:35:57;;;;;;;4.03;3.40;;;42.30;40.90;;;;;;5054288;28;20996;-81
2022/06/18 09:38:36;;;;;;;4.47;3.53;;;42.20;41.80;;;;;;5054705;28;20477;-81
2022/06/18 09:41:13;;;;;;;4.67;2.73;;;42.20;41.90;;;;;;5054448;28;20413;-81
2022/06/18 09:44:08;;;;;;;5.80;3.30;;;42.30;41.10;;;;;;5054411;28;20190;-81
2022/06/18 09:46:47;;;;;;;3.17;2.70;;;41.90;40.80;;;;;;5053179;28;20460;-81
2022/06/18 09:49:13;;;;;;;7.60;3.53;;;42.00;39.80;;;;;;5053876;28;20492;-81
2022/06/18 09:51:55;;;;;;;7.23;3.20;;;42.20;40.40;;;;;;5054238;28;20778;-82
2022/06/18 09:54:25;;;;;;;6.77;3.20;;;42.10;39.80;;;;;;5054008;28;20191;-81
2022/06/18 09:56:57;;;;;;;5.57;3.13;;;41.40;41.00;;;;;;5053374;28;20413;-81
2022/06/18 09:59:30;;;;;;;6.43;3.37;;;41.10;40.90;;;;;;5054333;28;20420;-82
2022/06/18 10:01:56;;;;;;;7.97;3.60;;;41.40;41.90;;;;;;5053675;28;20453;-81
2022/06/18 10:07:26;;;;;;;7.27;3.37;;;41.70;41.50;;;;;;5053865;28;20433;-82
2022/06/18 10:09:57;;;;;;;5.50;3.60;;;42.10;39.10;;;;;;5054503;28;20727;-81
2022/06/18 10:12:22;;;;;;;3.97;3.00;;;42.60;39.80;;;;;;5054078;28;20532;-83
2022/06/18 10:14:55;;;;;;;6.03;3.20;;;43.00;40.10;;;;;;5054888;28;20260;-85
2022/06/18 10:17:36;;;;;;;4.30;3.57;;;42.60;38.80;;;;;;5061080;28;20681;-85
2022/06/18 10:20:25;;;;;;;4.13;3.10;;;42.70;38.90;;;;;;5062427;28;20204;-85
2022/06/18 10:23:22;;;;;;;6.80;3.17;;;43.00;38.40;;;;;;5061850;28;20277;-83
2022/06/18 10:26:00;;;;;;;9.93;3.57;;;42.70;37.50;;;;;;5059407;28;20201;-84
2022/06/18 10:28:56;;;;;;;6.77;4.03;;;42.50;38.10;;;;;;5061770;28;20202;-84
2022/06/18 10:31:46;;;;;;;6.90;3.60;;;42.40;38.90;;;;;;5061803;28;20324;-84
2022/06/18 10:34:30;;;;;;;7.00;3.80;;;42.60;38.90;;;;;;5060655;28;20199;-83
2022/06/18 10:37:14;;;;;;;4.07;2.97;;;42.10;38.60;;;;;;5059124;28;20722;-84
2022/06/18 10:39:48;;;;;;;5.93;3.93;;;41.70;38.40;;;;;;5059476;28;20855;-83
2022/06/18 10:42:29;;;;;;;5.57;3.10;;;41.70;40.10;;;;;;5060689;28;20216;-84
2022/06/18 10:45:30;;;;;;;4.67;3.10;;;42.00;38.80;;;;;;5060055;28;20201;-85
2022/06/18 10:47:56;;;;;;;5.00;3.40;;;41.50;38.60;;;;;;5045936;28;20737;-84
2022/06/18 10:50:24;;;;;;;5.60;3.80;;;41.70;39.70;;;;;;5058577;28;20218;-83
2022/06/18 10:53:04;;;;;;;5.40;3.63;;;41.50;39.50;;;;;;5061375;28;20179;-84
2022/06/18 10:55:30;;;;;;;5.00;3.67;;;41.20;40.30;;;;;;5059078;28;20472;-82
2022/06/18 10:58:14;;;;;;;6.40;4.13;;;41.20;39.20;;;;;;5059480;28;20794;-83
2022/06/18 11:01:01;;;;;;;7.77;3.70;;;41.10;39.70;;;;;;5058669;28;20191;-84
2022/06/18 11:03:30;;;;;;;6.63;3.50;;;40.90;38.70;;;;;;5057885;28;20461;-84
2022/06/18 11:05:57;;;;;;;5.90;3.97;;;40.60;39.10;;;;;;5057166;28;20432;-85
2022/06/18 11:08:29;;;;;;;6.87;3.80;;;40.20;39.80;;;;;;5056517;28;20425;-83
2022/06/18 11:11:05;;;;;;;7.83;3.33;;;39.80;40.00;;;;;;5057322;28;20777;-84
2022/06/18 11:13:35;;;;;;;4.83;3.70;;;39.70;41.50;;;;;;5056002;28;20866;-84
2022/06/18 11:16:29;;;;;;;5.50;3.73;;;39.70;39.80;;;;;;5055273;28;20513;-83
2022/06/18 11:19:29;;;;;;;6.40;3.47;;;39.40;40.90;;;;;;5056902;28;20406;-83
2022/06/18 11:21:55;;;;;;;5.83;4.00;;;39.10;41.10;;;;;;5056659;28;20507;-83
2022/06/18 11:24:28;;;;;;;5.97;3.40;;;39.00;40.80;;;;;;5056224;28;20798;-83
2022/06/18 11:26:57;;;;;;;5.70;3.43;;;38.90;40.70;;;;;;5055744;28;20407;-84
2022/06/18 11:29:31;;;;;;;6.77;3.20;;;38.50;41.50;;;;;;5054370;28;20867;-83
2022/06/18 11:31:59;;;;;;;4.93;3.10;;;38.20;41.10;;;;;;5056223;28;20429;-82
2022/06/18 11:34:28;;;;;;;9.67;3.60;;;38.00;42.00;;;;;;5056012;28;20437;-82
2022/06/18 11:36:58;;;;;;;5.97;3.40;;;37.90;42.60;;;;;;5055594;28;20425;-82
2022/06/18 11:39:37;;;;;;;8.30;4.17;;;37.70;41.70;;;;;;5054040;28;20418;-84
2022/06/18 11:42:46;;;;;;;5.33;3.20;;;37.60;40.80;;;;;;5053677;28;20893;-84
2022/06/18 11:45:20;;;;;;;4.90;3.60;;;37.50;41.40;;;;;;5016760;28;20490;-82
2022/06/18 11:48:00;;;;;;;4.60;3.33;;;37.50;41.80;;;;;;5055069;28;20851;-83
2022/06/18 11:50:34;;;;;;;8.37;3.60;;;37.40;42.30;;;;;;5053260;28;20424;-84
2022/06/18 11:53:08;;;;;;;4.80;3.20;;;37.30;42.60;;;;;;5053473;28;20418;-82
2022/06/18 11:55:43;;;;;;;5.57;3.83;;;37.10;42.60;;;;;;5055047;28;20442;-81
2022/06/18 11:58:38;;;;;;;4.97;3.57;;;37.40;42.30;;;;;;5056159;28;21010;-84
2022/06/18 12:01:30;;;;;;;6.30;3.53;;;37.60;43.10;;;;;;5057791;28;20508;-84
2022/06/18 12:04:11;;;;;;;6.53;4.30;;;37.60;42.20;;;;;;5058308;28;20476;-82
2022/06/18 12:07:04;;;;;;;8.83;3.73;;;37.50;42.60;;;;;;5058961;28;20465;-84
2022/06/18 12:09:31;;;;;;;4.27;3.33;;;37.60;43.20;;;;;;5058224;28;20410;-83
2022/06/18 12:12:10;;;;;;;5.13;3.57;;;37.50;43.70;;;;;;5057033;28;20937;-83
2022/06/18 12:14:50;;;;;;;8.63;3.80;;;37.40;44.00;;;;;;5058655;28;20508;-84
2022/06/18 12:17:41;;;;;;;5.63;3.80;;;37.50;45.60;;;;;;5056731;28;20410;-81
2022/06/18 12:20:15;;;;;;;5.17;3.77;;;37.30;43.70;;;;;;5055502;28;20410;-83
2022/06/18 12:22:57;;;;;;;7.17;3.80;;;37.20;45.10;;;;;;5054256;28;20511;-82
2022/06/18 12:25:36;;;;;;;5.57;3.70;;;37.20;45.10;;;;;;5053979;28;20436;-81
2022/06/18 12:28:14;;;;;;;5.80;3.93;;;37.30;45.40;;;;;;5055690;28;20402;-83
2022/06/18 12:31:03;;;;;;;16.57;4.00;;;37.50;43.40;;;;;;5055293;28;20417;-81
2022/06/18 12:33:44;;;;;;;4.40;3.30;;;37.60;45.10;;;;;;5055832;28;20426;-82
2022/06/18 12:36:31;;;;;;;6.10;3.90;;;37.80;45.00;;;;;;5054982;28;20424;-81
2022/06/18 12:39:21;;;;;;;5.23;3.87;;;38.00;43.70;;;;;;5054055;28;20475;-83
2022/06/18 12:42:01;;;;;;;5.70;3.60;;;37.90;44.20;;;;;;5055351;28;20479;-83
2022/06/18 12:44:40;;;;;;;5.27;4.07;;;37.80;43.50;;;;;;5054855;28;20456;-81
2022/06/18 12:47:34;;;;;;;7.70;4.00;;;37.80;44.40;;;;;;5054766;28;20414;-82
2022/06/18 12:50:30;;;;;;;4.53;3.37;;;37.80;44.50;;;;;;5055261;28;20410;-82
2022/06/18 12:53:06;;;;;;;4.93;3.60;;;37.90;44.40;;;;;;5055191;28;21007;-82
2022/06/18 12:55:44;;;;;;;7.60;4.00;;;38.10;45.70;;;;;;5053484;28;20445;-82
2022/06/18 12:58:36;;;;;;;6.57;3.77;;;38.00;44.40;;;;;;5053819;28;20457;-81
2022/06/18 13:01:18;;;;;;;7.93;3.90;;;38.00;44.10;;;;;;5054854;28;20416;-81
2022/06/18 13:04:16;;;;;;;4.20;3.80;;;38.00;44.00;;;;;;5053353;28;20468;-82
2022/06/18 13:06:56;;;;;;;6.03;3.77;;;37.90;43.20;;;;;;5054076;28;20913;-81
2022/06/18 13:09:30;;;;;;;5.23;3.60;;;37.90;43.50;;;;;;5053572;28;20802;-81
2022/06/18 13:12:10;;;;;;;6.03;4.40;;;37.90;44.00;;;;;;5054816;28;20417;-82
2022/06/18 13:15:15;;;;;;;5.63;4.40;;;38.00;44.90;;;;;;5054500;28;20453;-81
2022/06/18 13:18:01;;;;;;;7.27;3.90;;;38.10;42.80;;;;;;5048043;28;20475;-81
2022/06/18 13:20:40;;;;;;;4.80;3.70;;;38.50;43.30;;;;;;5054584;28;20447;-83
2022/06/18 13:29:04;;;;;;;7.30;4.00;;;40.00;41.80;;;;;;5054166;28;20513;-82
2022/06/18 13:31:53;;;;;;;4.70;3.80;;;40.30;41.20;;;;;;5052957;28;20414;-82